createdAt,value
2018-02-07T00:02:00.287Z,68.50
2018-02-07T00:04:27.744Z,68.40
2018-02-07T00:06:55.184Z,67.50
2018-02-07T00:09:22.638Z,66.90
2018-02-07T00:11:50.135Z,66.50
2018-02-07T00:14:17.589Z,66.00
2018-02-07T00:16:45.029Z,65.90
2018-02-07T00:19:12.477Z,65.70
2018-02-07T00:21:39.920Z,65.60
2018-02-07T00:24:07.375Z,66.20
2018-02-07T00:26:34.814Z,67.60
2018-02-07T00:29:02.289Z,68.80
2018-02-07T00:31:29.736Z,68.70
2018-02-07T00:33:57.274Z,69.60
2018-02-07T00:36:24.730Z,69.50
2018-02-07T00:38:52.198Z,70.00
2018-02-07T00:41:19.644Z,71.20
2018-02-07T00:43:47.103Z,70.40
2018-02-07T00:46:14.543Z,69.80
2018-02-07T00:48:42.003Z,70.10
2018-02-07T00:51:10.232Z,70.60
2018-02-07T00:53:37.660Z,70.60
2018-02-07T00:56:05.112Z,70.80
2018-02-07T00:58:32.566Z,70.70
2018-02-07T01:01:00.036Z,71.00
2018-02-07T01:03:27.455Z,70.60
2018-02-07T01:05:54.895Z,69.70
2018-02-07T01:08:22.334Z,69.10
2018-02-07T01:10:49.775Z,68.60
2018-02-07T01:13:17.241Z,68.00
2018-02-07T01:15:44.685Z,67.80
2018-02-07T01:18:12.155Z,67.40
2018-02-07T01:20:39.579Z,68.30
2018-02-07T01:23:07.041Z,69.10
2018-02-07T01:25:34.489Z,69.90
2018-02-07T01:28:01.915Z,70.70
2018-02-07T01:30:29.373Z,70.20
2018-02-07T01:32:56.823Z,69.50
2018-02-07T01:35:24.271Z,68.80
2018-02-07T01:37:51.775Z,68.40
2018-02-07T01:40:19.211Z,67.90
2018-02-07T01:42:46.648Z,67.60
2018-02-07T01:45:14.084Z,67.30
2018-02-07T01:47:41.539Z,67.20
2018-02-07T01:50:08.987Z,66.80
2018-02-07T01:52:36.424Z,67.00
2018-02-07T01:55:03.881Z,66.80
2018-02-07T01:57:31.331Z,66.80
2018-02-07T01:59:58.879Z,66.70
2018-02-07T02:02:26.328Z,66.50
2018-02-07T02:04:53.801Z,66.50
2018-02-07T02:07:21.247Z,66.70
2018-02-07T02:09:49.476Z,66.50
2018-02-07T02:12:16.899Z,66.30
2018-02-07T02:14:44.349Z,66.40
2018-02-07T02:17:11.787Z,66.40
2018-02-07T02:19:39.260Z,66.30
2018-02-07T02:22:06.924Z,66.60
2018-02-07T02:24:34.356Z,66.10
2018-02-07T02:27:01.797Z,66.70
2018-02-07T02:29:29.228Z,68.40
2018-02-07T02:31:56.695Z,69.30
2018-02-07T02:34:24.131Z,69.40
2018-02-07T02:36:51.575Z,69.80
2018-02-07T02:39:19.007Z,69.90
2018-02-07T02:41:47.228Z,70.00
2018-02-07T02:44:15.551Z,69.00
2018-02-07T02:46:43.000Z,69.40
2018-02-07T02:49:10.444Z,68.50
2018-02-07T02:51:37.888Z,68.00
2018-02-07T02:54:05.337Z,69.60
2018-02-07T02:56:32.794Z,68.60
2018-02-07T02:59:00.261Z,69.70
2018-02-07T03:01:27.712Z,68.60
2018-02-07T03:03:55.168Z,67.90
2018-02-07T03:06:22.695Z,66.90
2018-02-07T03:08:50.148Z,65.70
2018-02-07T03:11:17.612Z,64.80
2018-02-07T03:13:45.044Z,64.90
2018-02-07T03:16:12.490Z,64.50
2018-02-07T03:18:39.930Z,64.30
2018-02-07T03:21:07.366Z,63.80
2018-02-07T03:23:34.799Z,63.80
2018-02-07T03:26:02.249Z,64.00
2018-02-07T03:28:29.683Z,63.60
2018-02-07T03:30:57.914Z,63.50
2018-02-07T03:33:25.357Z,63.40
2018-02-07T03:35:52.826Z,63.60
2018-02-07T03:38:20.283Z,63.40
2018-02-07T03:40:47.729Z,63.40
2018-02-07T03:43:15.180Z,63.20
2018-02-07T03:45:42.624Z,63.70
2018-02-07T03:48:10.067Z,63.70
2018-02-07T03:50:37.526Z,64.20
2018-02-07T03:53:04.972Z,64.00
2018-02-07T03:55:33.186Z,63.30
2018-02-07T03:58:00.627Z,63.20
2018-02-07T04:00:28.071Z,62.70
2018-02-07T04:02:55.523Z,63.50
2018-02-07T04:05:23.727Z,65.50
2018-02-07T04:07:51.185Z,65.50
2018-02-07T04:10:18.658Z,67.00
2018-02-07T04:12:46.190Z,68.60
2018-02-07T04:15:13.652Z,69.00
2018-02-07T04:17:41.109Z,68.70
2018-02-07T04:20:08.585Z,69.40
2018-02-07T04:22:36.044Z,69.00
2018-02-07T04:25:03.505Z,70.10
2018-02-07T04:27:30.947Z,71.40
2018-02-07T04:29:58.386Z,72.30
2018-02-07T04:32:25.831Z,71.30
2018-02-07T04:34:53.282Z,70.50
2018-02-07T04:37:20.739Z,69.50
2018-02-07T04:39:48.155Z,68.10
2018-02-07T04:42:15.603Z,67.10
2018-02-07T04:44:43.059Z,66.90
2018-02-07T04:47:10.519Z,66.40
2018-02-07T04:49:37.979Z,67.80
2018-02-07T04:52:05.435Z,67.80
2018-02-07T04:54:32.896Z,69.40
2018-02-07T04:57:00.341Z,69.40
2018-02-07T04:59:27.793Z,69.30
2018-02-07T05:01:55.246Z,70.20
2018-02-07T05:04:22.710Z,70.80
2018-02-07T05:06:50.163Z,70.20
2018-02-07T05:09:17.630Z,70.20
2018-02-07T05:11:45.063Z,69.80
2018-02-07T05:14:12.519Z,68.60
2018-02-07T05:16:39.977Z,67.70
2018-02-07T05:19:07.533Z,66.80
2018-02-07T05:21:34.974Z,66.70
2018-02-07T05:24:02.475Z,66.00
2018-02-07T05:26:29.918Z,65.90
2018-02-07T05:28:57.384Z,65.40
2018-02-07T05:31:24.842Z,65.50
2018-02-07T05:33:52.299Z,65.10
2018-02-07T05:36:19.763Z,65.50
2018-02-07T05:38:47.215Z,66.10
2018-02-07T05:41:14.661Z,66.90
2018-02-07T05:43:42.112Z,67.20
2018-02-07T05:46:09.575Z,69.00
2018-02-07T05:48:37.027Z,68.60
2018-02-07T05:51:04.484Z,67.80
2018-02-07T05:53:31.907Z,67.20
2018-02-07T05:55:59.367Z,66.40
2018-02-07T05:58:26.799Z,65.50
2018-02-07T06:00:54.257Z,65.60
2018-02-07T06:03:21.758Z,64.80
2018-02-07T06:05:49.188Z,64.80
2018-02-07T06:08:16.639Z,65.40
2018-02-07T06:10:44.084Z,65.60
2018-02-07T06:13:11.533Z,66.00
2018-02-07T06:15:38.986Z,66.30
2018-02-07T06:18:06.437Z,65.50
2018-02-07T06:20:33.881Z,65.90
2018-02-07T06:23:01.644Z,66.20
2018-02-07T06:25:29.155Z,66.50
2018-02-07T06:27:56.613Z,66.10
2018-02-07T06:30:24.096Z,65.90
2018-02-07T06:32:51.519Z,66.80
2018-02-07T06:35:18.964Z,67.30
2018-02-07T06:37:46.411Z,66.70
2018-02-07T06:40:13.855Z,66.50
2018-02-07T06:42:41.324Z,66.00
2018-02-07T06:45:08.777Z,65.00
2018-02-07T06:47:36.300Z,64.90
2018-02-07T06:50:03.731Z,66.80
2018-02-07T06:52:31.274Z,67.40
2018-02-07T06:54:58.722Z,68.30
2018-02-07T06:57:26.147Z,68.90
2018-02-07T06:59:53.810Z,68.90
2018-02-07T07:02:21.570Z,69.70
2018-02-07T07:04:49.089Z,70.50
2018-02-07T07:07:16.587Z,70.80
2018-02-07T07:09:44.055Z,71.50
2018-02-07T07:12:11.515Z,71.60
2018-02-07T07:14:39.000Z,70.30
2018-02-07T07:17:06.435Z,70.50
2018-02-07T07:19:33.896Z,69.30
2018-02-07T07:22:01.363Z,68.80
2018-02-07T07:24:28.816Z,69.20
2018-02-07T07:26:56.263Z,69.70
2018-02-07T07:29:23.739Z,69.70
2018-02-07T07:31:51.197Z,70.00
2018-02-07T07:34:18.649Z,70.90
2018-02-07T07:36:46.087Z,71.90
2018-02-07T07:39:13.569Z,73.30
2018-02-07T07:41:41.017Z,73.80
2018-02-07T07:44:08.478Z,74.60
2018-02-07T07:46:35.914Z,74.00
2018-02-07T07:49:03.372Z,73.90
2018-02-07T07:51:30.836Z,73.80
2018-02-07T07:54:00.075Z,73.80
2018-02-07T07:56:27.544Z,73.70
2018-02-07T07:58:55.023Z,74.50
2018-02-07T08:01:22.464Z,75.30
2018-02-07T08:03:49.947Z,75.30
2018-02-07T08:06:17.400Z,75.50
2018-02-07T08:08:44.857Z,75.00
2018-02-07T08:11:12.309Z,75.20
2018-02-07T08:13:39.772Z,75.00
2018-02-07T08:16:07.229Z,75.50
2018-02-07T08:18:34.684Z,76.50
2018-02-07T08:21:02.168Z,75.70
2018-02-07T08:23:29.619Z,75.60
2018-02-07T08:25:57.083Z,76.20
2018-02-07T08:28:24.536Z,76.00
2018-02-07T08:30:52.001Z,76.10
2018-02-07T08:33:19.465Z,76.60
2018-02-07T08:35:46.951Z,76.00
2018-02-07T08:38:14.411Z,75.70
2018-02-07T08:40:41.902Z,76.50
2018-02-07T08:43:09.416Z,74.90
2018-02-07T08:45:36.876Z,75.20
2018-02-07T08:48:05.087Z,74.50
2018-02-07T08:50:32.531Z,74.40
2018-02-07T08:53:00.034Z,73.10
2018-02-07T08:55:27.550Z,73.50
2018-02-07T08:57:54.952Z,73.10
2018-02-07T09:00:22.418Z,73.20
2018-02-07T09:02:49.895Z,74.00
2018-02-07T09:05:17.351Z,74.20
2018-02-07T09:07:44.816Z,74.40
2018-02-07T09:10:12.308Z,73.80
2018-02-07T09:12:39.786Z,73.90
2018-02-07T09:15:07.281Z,73.40
2018-02-07T09:17:35.504Z,73.30
2018-02-07T09:20:02.960Z,73.20
2018-02-07T09:22:30.443Z,72.20
2018-02-07T09:24:57.914Z,72.10
2018-02-07T09:27:25.357Z,72.10
2018-02-07T09:29:52.859Z,72.70
2018-02-07T09:32:20.315Z,72.90
2018-02-07T09:34:47.783Z,72.50
2018-02-07T09:37:15.261Z,71.80
2018-02-07T09:39:42.734Z,70.40
2018-02-07T09:42:10.196Z,69.00
2018-02-07T09:44:37.660Z,68.90
2018-02-07T09:47:05.136Z,69.00
2018-02-07T09:49:32.596Z,69.20
2018-02-07T09:52:00.042Z,68.20
2018-02-07T09:54:27.504Z,67.70
2018-02-07T09:56:54.984Z,68.10
2018-02-07T09:59:23.198Z,70.30
2018-02-07T10:01:50.649Z,70.10
2018-02-07T10:04:18.110Z,71.60
2018-02-07T10:06:45.560Z,70.80
2018-02-07T10:09:13.024Z,70.00
2018-02-07T10:11:40.493Z,70.50
2018-02-07T10:14:07.951Z,69.40
2018-02-07T10:16:35.404Z,67.90
2018-02-07T10:19:03.649Z,67.00
2018-02-07T10:21:31.871Z,66.90
2018-02-07T10:23:59.824Z,66.80
2018-02-07T10:26:27.356Z,67.60
2018-02-07T10:28:54.832Z,67.30
2018-02-07T10:31:22.301Z,66.90
2018-02-07T10:33:49.789Z,66.20
2018-02-07T10:36:17.257Z,65.60
2018-02-07T10:38:44.703Z,64.90
2018-02-07T10:41:12.322Z,64.70
2018-02-07T10:43:39.779Z,64.80
2018-02-07T10:46:07.236Z,64.90
2018-02-07T10:48:34.804Z,64.30
2018-02-07T10:51:02.259Z,63.70
2018-02-07T10:53:29.724Z,63.30
2018-02-07T10:55:57.183Z,63.80
2018-02-07T10:58:24.637Z,64.30
2018-02-07T11:00:52.114Z,64.00
2018-02-07T11:03:19.587Z,63.50
2018-02-07T11:05:47.044Z,63.00
2018-02-07T11:08:14.508Z,62.60
2018-02-07T11:10:41.957Z,62.60
2018-02-07T11:13:10.188Z,62.20
2018-02-07T11:15:37.647Z,62.20
2018-02-07T11:18:05.119Z,62.00
2018-02-07T11:20:32.577Z,61.70
2018-02-07T11:23:00.047Z,62.30
2018-02-07T11:25:27.503Z,62.30
2018-02-07T11:27:55.024Z,62.00
2018-02-07T11:30:22.444Z,61.60
2018-02-07T11:32:50.869Z,61.40
2018-02-07T11:35:18.344Z,61.20
2018-02-07T11:37:45.827Z,61.20
2018-02-07T11:40:13.291Z,61.80
2018-02-07T11:42:40.793Z,62.10
2018-02-07T11:45:08.261Z,62.60
2018-02-07T11:47:35.724Z,62.60
2018-02-07T11:50:03.207Z,63.40
2018-02-07T11:52:30.652Z,62.80
2018-02-07T11:54:58.287Z,62.20
2018-02-07T11:57:26.513Z,61.90
2018-02-07T11:59:53.951Z,61.80
2018-02-07T12:02:21.403Z,61.90
2018-02-07T12:04:48.859Z,62.40
2018-02-07T12:07:16.331Z,62.50
2018-02-07T12:09:43.799Z,63.30
2018-02-07T12:12:11.254Z,63.50
2018-02-07T12:14:39.504Z,64.20
2018-02-07T12:17:06.967Z,63.40
2018-02-07T12:19:34.456Z,63.60
2018-02-07T12:22:01.963Z,63.50
2018-02-07T12:24:29.419Z,63.30
2018-02-07T12:26:56.883Z,64.60
2018-02-07T12:29:24.341Z,65.90
2018-02-07T12:31:52.642Z,66.50
2018-02-07T12:34:20.093Z,66.10
2018-02-07T12:36:47.572Z,65.30
2018-02-07T12:39:15.847Z,65.80
2018-02-07T12:41:43.863Z,64.90
2018-02-07T12:44:11.315Z,64.60
2018-02-07T12:46:38.759Z,64.60
2018-02-07T12:49:06.261Z,64.40
2018-02-07T12:51:33.698Z,64.40
2018-02-07T12:54:01.143Z,64.50
2018-02-07T12:56:28.701Z,64.70
2018-02-07T12:58:56.164Z,65.70
2018-02-07T13:01:23.595Z,65.40
2018-02-07T13:03:51.054Z,65.20
2018-02-07T13:06:18.511Z,64.90
2018-02-07T13:08:45.951Z,64.90
2018-02-07T13:11:13.415Z,64.50
2018-02-07T13:13:40.875Z,64.50
2018-02-07T13:16:08.313Z,64.90
2018-02-07T13:18:35.772Z,65.40
2018-02-07T13:21:03.243Z,65.70
2018-02-07T13:23:30.699Z,65.40
2018-02-07T13:25:58.151Z,65.40
2018-02-07T13:28:25.615Z,64.70
2018-02-07T13:30:53.067Z,64.60
2018-02-07T13:33:20.542Z,65.20
2018-02-07T13:35:48.030Z,65.10
2018-02-07T13:38:15.488Z,64.80
2018-02-07T13:40:42.948Z,64.50
2018-02-07T13:43:10.388Z,64.70
2018-02-07T13:45:37.845Z,64.50
2018-02-07T13:48:05.287Z,63.50
2018-02-07T13:50:32.743Z,63.10
2018-02-07T13:53:00.192Z,62.90
2018-02-07T13:55:27.654Z,62.60
2018-02-07T13:57:55.091Z,62.40
2018-02-07T14:00:23.294Z,62.50
2018-02-07T14:02:50.744Z,62.40
2018-02-07T14:05:18.629Z,63.00
2018-02-07T14:07:46.085Z,63.40
2018-02-07T14:10:13.541Z,64.40
2018-02-07T14:12:41.003Z,64.20
2018-02-07T14:15:08.440Z,65.60
2018-02-07T14:17:35.884Z,66.70
2018-02-07T14:20:03.331Z,68.80
2018-02-07T14:22:31.554Z,72.10
2018-02-07T14:24:59.004Z,72.00
2018-02-07T14:27:26.440Z,73.40
2018-02-07T14:29:53.884Z,72.80
2018-02-07T14:32:21.324Z,72.90
2018-02-07T14:34:48.773Z,73.70
2018-02-07T14:37:16.226Z,73.80
2018-02-07T14:39:43.696Z,76.40
2018-02-07T14:42:11.912Z,76.80
2018-02-07T14:44:39.339Z,76.80
2018-02-07T14:47:06.780Z,76.30
2018-02-07T14:49:34.224Z,74.50
2018-02-07T14:52:01.672Z,74.90
2018-02-07T14:54:29.120Z,75.60
2018-02-07T14:56:56.591Z,74.90
2018-02-07T14:59:24.043Z,74.60
2018-02-07T15:01:51.494Z,75.80
2018-02-07T15:04:18.958Z,76.70
2018-02-07T15:06:46.415Z,78.60
2018-02-07T15:09:13.872Z,78.20
2018-02-07T15:11:41.312Z,76.40
2018-02-07T15:14:08.791Z,75.10
2018-02-07T15:16:36.241Z,74.50
2018-02-07T15:19:03.678Z,75.50
2018-02-07T15:21:31.168Z,74.50
2018-02-07T15:23:58.624Z,71.90
2018-02-07T15:26:26.082Z,72.10
2018-02-07T15:28:53.539Z,72.90
2018-02-07T15:31:20.983Z,74.30
2018-02-07T15:33:48.449Z,75.40
2018-02-07T15:36:15.922Z,76.90
2018-02-07T15:38:43.371Z,79.90
2018-02-07T15:41:10.815Z,79.50
2018-02-07T15:43:38.247Z,76.80
2018-02-07T15:46:05.702Z,76.90
2018-02-07T15:48:33.160Z,75.70
2018-02-07T15:51:01.383Z,78.00
2018-02-07T15:53:29.604Z,76.50
2018-02-07T15:55:57.043Z,76.30
2018-02-07T15:58:24.479Z,75.90
2018-02-07T16:00:51.940Z,76.20
2018-02-07T16:03:19.381Z,75.70
2018-02-07T16:05:46.826Z,76.00
2018-02-07T16:08:14.274Z,76.10
2018-02-07T16:10:41.711Z,74.30
2018-02-07T16:13:09.196Z,75.90
2018-02-07T16:15:36.860Z,75.00
2018-02-07T16:18:04.461Z,74.00
2018-02-07T16:20:31.907Z,75.90
2018-02-07T16:23:00.151Z,73.00
2018-02-07T16:25:27.582Z,73.00
2018-02-07T16:27:55.044Z,74.50
2018-02-07T16:30:22.588Z,72.40
2018-02-07T16:32:50.045Z,73.70
2018-02-07T16:35:17.505Z,73.60
2018-02-07T16:37:44.959Z,73.50
2018-02-07T16:40:12.518Z,73.10
2018-02-07T16:42:39.943Z,73.10
2018-02-07T16:45:07.397Z,74.00
2018-02-07T16:47:34.870Z,74.60
2018-02-07T16:50:02.321Z,75.20
2018-02-07T16:52:29.765Z,75.00
2018-02-07T16:54:57.203Z,74.40
2018-02-07T16:57:24.648Z,76.70
2018-02-07T16:59:52.120Z,77.50
2018-02-07T17:02:19.563Z,76.90
2018-02-07T17:04:47.007Z,76.80
2018-02-07T17:07:14.474Z,73.20
2018-02-07T17:09:41.932Z,72.20
2018-02-07T17:12:09.410Z,72.80
2018-02-07T17:14:36.847Z,73.20
2018-02-07T17:17:04.295Z,71.50
2018-02-07T17:19:31.743Z,70.40
2018-02-07T17:21:59.259Z,70.30
2018-02-07T17:24:26.704Z,71.80
2018-02-07T17:26:54.151Z,70.90
2018-02-07T17:29:21.596Z,71.10
2018-02-07T17:31:49.063Z,70.80
2018-02-07T17:34:16.524Z,70.50
2018-02-07T17:36:43.992Z,69.10
2018-02-07T17:39:11.423Z,69.20
2018-02-07T17:41:38.895Z,69.90
2018-02-07T17:44:07.284Z,70.80
2018-02-07T17:46:34.743Z,70.80
2018-02-07T17:49:02.967Z,70.60
2018-02-07T17:51:30.449Z,70.50
2018-02-07T17:53:57.888Z,70.20
2018-02-07T17:56:25.331Z,70.90
2018-02-07T17:58:52.769Z,70.30
2018-02-07T18:01:20.201Z,71.50
2018-02-07T18:03:47.664Z,70.70
2018-02-07T18:06:15.099Z,71.50
2018-02-07T18:08:42.552Z,71.40
2018-02-07T18:11:10.007Z,71.10
2018-02-07T18:13:37.458Z,71.20
2018-02-07T18:16:04.907Z,73.20
2018-02-07T18:18:32.390Z,73.20
2018-02-07T18:20:59.803Z,73.00
2018-02-07T18:23:27.261Z,74.30
2018-02-07T18:25:54.715Z,72.70
2018-02-07T18:28:22.147Z,72.40
2018-02-07T18:30:49.844Z,71.90
2018-02-07T18:33:17.271Z,71.90
2018-02-07T18:35:44.716Z,72.00
2018-02-07T18:38:12.161Z,71.70
2018-02-07T18:40:40.358Z,72.70
2018-02-07T18:43:07.800Z,72.60
2018-02-07T18:45:35.232Z,73.00
2018-02-07T18:48:02.672Z,73.50
2018-02-07T18:50:30.208Z,75.40
2018-02-07T18:52:57.675Z,76.50
2018-02-07T18:55:25.123Z,78.20
2018-02-07T18:57:52.575Z,78.80
2018-02-07T19:00:20.032Z,77.00
2018-02-07T19:02:48.000Z,75.80
2018-02-07T19:05:15.431Z,76.60
2018-02-07T19:07:42.920Z,79.30
2018-02-07T19:10:10.984Z,78.60
2018-02-07T19:12:38.546Z,78.30
2018-02-07T19:15:05.995Z,77.60
2018-02-07T19:17:33.466Z,76.50
2018-02-07T19:20:00.930Z,76.20
2018-02-07T19:22:28.392Z,78.90
2018-02-07T19:24:55.829Z,79.10
2018-02-07T19:27:23.292Z,77.80
2018-02-07T19:29:51.500Z,77.30
2018-02-07T19:32:18.957Z,77.70
2018-02-07T19:34:46.566Z,77.60
2018-02-07T19:37:14.038Z,77.10
2018-02-07T19:39:41.471Z,76.40
2018-02-07T19:42:08.916Z,73.90
2018-02-07T19:44:36.375Z,77.10
2018-02-07T19:47:03.819Z,76.20
2018-02-07T19:49:32.037Z,73.20
2018-02-07T19:51:59.476Z,73.20
2018-02-07T19:54:26.919Z,72.60
2018-02-07T19:56:54.376Z,72.80
2018-02-07T19:59:21.823Z,72.30
2018-02-07T20:01:49.267Z,73.30
2018-02-07T20:04:16.722Z,74.20
2018-02-07T20:06:44.175Z,73.50
2018-02-07T20:09:11.622Z,72.90
2018-02-07T20:11:39.059Z,73.20
2018-02-07T20:14:06.516Z,72.90
2018-02-07T20:16:33.973Z,73.10
2018-02-07T20:19:01.422Z,73.80
2018-02-07T20:21:29.083Z,75.20
2018-02-07T20:23:56.542Z,74.80
2018-02-07T20:26:23.997Z,73.90
2018-02-07T20:28:51.467Z,74.30
2018-02-07T20:31:18.891Z,73.90
2018-02-07T20:33:46.338Z,73.20
2018-02-07T20:36:13.788Z,74.20
2018-02-07T20:38:42.007Z,73.00
2018-02-07T20:41:09.454Z,73.00
2018-02-07T20:43:36.903Z,72.90
2018-02-07T20:46:04.369Z,73.70
2018-02-07T20:48:31.812Z,73.10
2018-02-07T20:50:59.236Z,72.60
2018-02-07T20:53:26.666Z,72.50
2018-02-07T20:55:54.111Z,71.50
2018-02-07T20:58:21.553Z,70.80
2018-02-07T21:00:49.012Z,70.30
2018-02-07T21:03:16.552Z,69.50
2018-02-07T21:05:44.009Z,69.20
2018-02-07T21:08:11.443Z,69.10
2018-02-07T21:10:38.874Z,69.00
2018-02-07T21:13:06.326Z,69.30
2018-02-07T21:15:33.779Z,69.30
2018-02-07T21:18:01.205Z,70.20
2018-02-07T21:20:28.634Z,69.10
2018-02-07T21:22:56.088Z,69.50
2018-02-07T21:25:24.305Z,70.50
2018-02-07T21:27:51.743Z,70.50
2018-02-07T21:30:19.220Z,71.00
2018-02-07T21:32:46.653Z,71.80
2018-02-07T21:35:14.091Z,71.70
2018-02-07T21:37:41.531Z,71.80
2018-02-07T21:40:08.967Z,72.90
2018-02-07T21:42:36.431Z,72.90
2018-02-07T21:45:03.863Z,72.50
2018-02-07T21:47:31.379Z,71.40
2018-02-07T21:49:58.834Z,71.10
2018-02-07T21:52:26.295Z,70.90
2018-02-07T21:54:53.765Z,71.10
2018-02-07T21:57:21.206Z,70.90
2018-02-07T21:59:48.688Z,70.70
2018-02-07T22:02:16.123Z,71.10
2018-02-07T22:04:43.574Z,71.00
2018-02-07T22:07:11.019Z,70.80
2018-02-07T22:09:38.492Z,70.90
2018-02-07T22:12:05.947Z,69.40
2018-02-07T22:14:33.403Z,69.40
2018-02-07T22:17:00.864Z,69.40
2018-02-07T22:19:28.304Z,69.60
2018-02-07T22:21:55.743Z,69.50
2018-02-07T22:24:23.187Z,69.40
2018-02-07T22:26:50.631Z,69.90
2018-02-07T22:29:18.087Z,69.40
2018-02-07T22:31:45.599Z,69.10
2018-02-07T22:34:13.051Z,69.20
2018-02-07T22:36:40.487Z,68.50
2018-02-07T22:39:07.948Z,68.50
2018-02-07T22:41:35.384Z,68.70
2018-02-07T22:44:02.831Z,68.70
2018-02-07T22:46:30.263Z,68.80
2018-02-07T22:48:57.719Z,68.40
2018-02-07T22:51:25.206Z,68.30
2018-02-07T22:53:52.713Z,67.90
2018-02-07T22:56:20.169Z,68.10
2018-02-07T22:58:47.624Z,68.10
2018-02-07T23:01:15.081Z,69.90
2018-02-07T23:03:42.543Z,68.80
2018-02-07T23:06:09.992Z,68.70
2018-02-07T23:08:37.427Z,68.80
2018-02-07T23:11:04.874Z,68.40
2018-02-07T23:13:32.324Z,68.80
2018-02-07T23:15:59.843Z,69.10
2018-02-07T23:18:27.279Z,70.50
2018-02-07T23:20:54.759Z,71.40
2018-02-07T23:23:22.195Z,71.30
2018-02-07T23:25:50.417Z,69.80
2018-02-07T23:28:17.872Z,69.80
2018-02-07T23:30:45.310Z,70.10
2018-02-07T23:33:12.767Z,69.30
2018-02-07T23:35:40.227Z,68.40
2018-02-07T23:38:07.880Z,69.30
2018-02-07T23:40:35.325Z,70.10
2018-02-07T23:43:02.775Z,71.00
2018-02-07T23:45:30.981Z,70.70
2018-02-07T23:47:58.437Z,70.70
2018-02-07T23:50:25.896Z,70.00
2018-02-07T23:52:53.343Z,70.20
2018-02-07T23:55:20.814Z,70.50
2018-02-07T23:57:48.239Z,69.70
